createdAt,value
2023-04-27T00:00:37.705Z,17.66
2023-04-27T00:03:06.560Z,17.64
2023-04-27T00:05:39.759Z,17.62
2023-04-27T00:08:07.630Z,17.59
2023-04-27T00:10:35.395Z,17.52
2023-04-27T00:13:02.861Z,17.56
2023-04-27T00:15:30.485Z,17.54
2023-04-27T00:17:57.997Z,17.60
2023-04-27T00:20:25.631Z,17.58
2023-04-27T00:22:53.173Z,17.55
2023-04-27T00:25:20.764Z,17.59
2023-04-27T00:27:48.276Z,17.55
2023-04-27T00:30:15.933Z,17.56
2023-04-27T00:32:43.479Z,17.56
2023-04-27T00:35:11.734Z,17.61
2023-04-27T00:37:39.432Z,17.53
2023-04-27T00:40:08.272Z,17.57
2023-04-27T00:42:36.365Z,17.59
2023-04-27T00:45:05.554Z,17.59
2023-04-27T00:47:33.418Z,17.50
2023-04-27T00:50:04.281Z,17.48
2023-04-27T00:52:31.995Z,17.55
2023-04-27T00:54:59.612Z,17.57
2023-04-27T00:57:27.082Z,17.55
2023-04-27T00:59:54.688Z,17.43
2023-04-27T01:02:23.109Z,17.52
2023-04-27T01:04:50.947Z,17.55
2023-04-27T01:07:19.939Z,17.54
2023-04-27T01:09:47.451Z,17.59
2023-04-27T01:12:16.498Z,17.63
2023-04-27T01:14:44.132Z,17.64
2023-04-27T01:17:12.162Z,17.61
2023-04-27T01:19:40.796Z,17.58
2023-04-27T01:22:08.489Z,17.67
2023-04-27T01:24:35.865Z,17.69
2023-04-27T01:27:05.832Z,17.66
2023-04-27T01:29:33.503Z,17.61
2023-04-27T01:32:00.941Z,17.64
2023-04-27T01:34:28.415Z,17.63
2023-04-27T01:36:56.019Z,17.59
2023-04-27T01:39:23.521Z,17.61
2023-04-27T01:41:51.320Z,17.66
2023-04-27T01:44:19.255Z,17.63
2023-04-27T01:46:46.837Z,17.67
2023-04-27T01:49:14.601Z,17.74
2023-04-27T01:51:42.251Z,17.73
2023-04-27T01:54:09.742Z,17.71
2023-04-27T01:56:37.288Z,17.72
2023-04-27T01:59:04.844Z,17.75
2023-04-27T02:01:32.325Z,17.78
2023-04-27T02:03:59.957Z,17.77
2023-04-27T02:06:28.123Z,17.74
2023-04-27T02:08:55.667Z,17.80
2023-04-27T02:11:24.108Z,17.78
2023-04-27T02:13:51.741Z,17.93
2023-04-27T02:16:20.341Z,17.95
2023-04-27T02:18:48.050Z,17.99
2023-04-27T02:21:17.110Z,18.00
2023-04-27T02:23:44.548Z,18.08
2023-04-27T02:26:19.919Z,18.20
2023-04-27T02:28:48.163Z,18.15
2023-04-27T02:31:16.273Z,18.18
2023-04-27T02:33:43.774Z,18.14
2023-04-27T02:36:11.471Z,18.17
2023-04-27T02:38:38.978Z,18.25
2023-04-27T02:41:06.602Z,18.33
2023-04-27T02:43:35.042Z,18.36
2023-04-27T02:46:06.027Z,18.47
2023-04-27T02:48:33.801Z,18.51
2023-04-27T02:51:04.885Z,18.54
2023-04-27T02:53:32.549Z,18.56
2023-04-27T02:56:00.177Z,18.64
2023-04-27T02:58:27.688Z,18.65
2023-04-27T03:00:56.762Z,18.71
2023-04-27T03:03:25.002Z,18.76
2023-04-27T03:05:52.734Z,18.84
2023-04-27T03:08:20.268Z,18.96
2023-04-27T03:10:47.788Z,19.04
2023-04-27T03:13:16.135Z,19.13
2023-04-27T03:15:44.478Z,19.18
2023-04-27T03:18:13.102Z,19.28
2023-04-27T03:20:41.625Z,19.37
2023-04-27T03:23:09.133Z,19.45
2023-04-27T03:25:36.704Z,19.54
2023-04-27T03:28:04.234Z,19.67
2023-04-27T03:30:31.765Z,19.80
2023-04-27T03:32:59.401Z,19.99
2023-04-27T03:35:27.930Z,20.25
2023-04-27T03:37:55.365Z,20.46
2023-04-27T03:40:22.995Z,20.73
2023-04-27T03:42:50.461Z,21.04
2023-04-27T03:45:19.495Z,21.36
2023-04-27T03:47:47.165Z,21.54
2023-04-27T03:50:16.598Z,21.83
2023-04-27T03:52:44.188Z,22.02
2023-04-27T03:55:11.851Z,22.20
2023-04-27T03:57:42.092Z,22.53
2023-04-27T04:00:13.334Z,22.86
2023-04-27T04:02:42.597Z,23.07
2023-04-27T04:05:11.263Z,23.17
2023-04-27T04:07:38.929Z,23.25
2023-04-27T04:10:07.321Z,23.23
2023-04-27T04:12:34.791Z,23.27
2023-04-27T04:15:03.862Z,23.36
2023-04-27T04:17:34.455Z,23.67
2023-04-27T04:20:07.504Z,23.98
2023-04-27T04:22:35.100Z,24.53
2023-04-27T04:25:04.951Z,24.77
2023-04-27T04:27:33.784Z,25.02
2023-04-27T04:30:01.381Z,25.37
2023-04-27T04:32:31.779Z,25.62
2023-04-27T04:34:59.507Z,25.88
2023-04-27T04:37:27.222Z,26.21
2023-04-27T04:39:55.765Z,26.09
2023-04-27T04:42:26.031Z,25.99
2023-04-27T04:44:53.619Z,25.98
2023-04-27T04:47:21.809Z,25.89
2023-04-27T04:49:49.386Z,25.71
2023-04-27T04:52:16.936Z,25.63
2023-04-27T04:54:45.262Z,25.50
2023-04-27T04:57:13.530Z,25.41
2023-04-27T04:59:41.438Z,25.44
2023-04-27T05:02:08.904Z,25.37
2023-04-27T05:04:36.634Z,25.37
2023-04-27T05:07:05.065Z,25.31
2023-04-27T05:09:32.549Z,25.36
2023-04-27T05:12:02.161Z,25.45
2023-04-27T05:14:29.580Z,25.47
2023-04-27T05:16:57.152Z,25.55
2023-04-27T05:19:25.561Z,25.64
2023-04-27T05:21:53.045Z,25.75
2023-04-27T05:24:20.479Z,26.00
2023-04-27T05:26:48.056Z,26.07
2023-04-27T05:29:15.971Z,26.42
2023-04-27T05:31:43.923Z,26.52
2023-04-27T05:34:11.608Z,26.50
2023-04-27T05:36:39.276Z,26.61
2023-04-27T05:39:07.388Z,26.53
2023-04-27T05:41:35.355Z,26.44
2023-04-27T05:44:02.884Z,26.31
2023-04-27T05:46:30.474Z,26.19
2023-04-27T05:48:58.010Z,25.90
2023-04-27T05:51:25.790Z,25.85
2023-04-27T05:53:56.153Z,25.87
2023-04-27T05:56:23.656Z,25.88
2023-04-27T05:58:52.154Z,26.50
2023-04-27T06:01:19.675Z,26.45
2023-04-27T06:03:47.252Z,26.96
2023-04-27T06:06:14.807Z,27.45
2023-04-27T06:08:43.006Z,27.79
2023-04-27T06:11:10.372Z,27.71
2023-04-27T06:13:38.065Z,27.85
2023-04-27T06:16:06.137Z,28.18
2023-04-27T06:18:33.816Z,29.40
2023-04-27T06:21:02.173Z,29.71
2023-04-27T06:23:29.855Z,29.73
2023-04-27T06:25:59.033Z,29.64
2023-04-27T06:28:26.604Z,29.25
2023-04-27T06:30:55.089Z,29.50
2023-04-27T06:33:22.551Z,30.05
2023-04-27T06:35:50.259Z,30.69
2023-04-27T06:38:18.561Z,31.27
2023-04-27T06:40:46.216Z,31.31
2023-04-27T06:43:13.758Z,31.63
2023-04-27T06:45:41.390Z,31.52
2023-04-27T06:48:08.954Z,31.68
2023-04-27T06:50:36.361Z,31.64
2023-04-27T06:53:04.022Z,32.31
2023-04-27T06:55:31.582Z,32.89
2023-04-27T06:57:59.005Z,32.54
2023-04-27T07:00:27.479Z,32.82
2023-04-27T07:02:55.106Z,33.18
2023-04-27T07:05:22.644Z,33.49
2023-04-27T07:07:50.116Z,34.27
2023-04-27T07:10:17.645Z,34.57
2023-04-27T07:12:45.237Z,34.47
2023-04-27T07:15:12.900Z,34.54
2023-04-27T07:17:40.490Z,34.63
2023-04-27T07:20:08.900Z,34.52
2023-04-27T07:22:36.676Z,34.73
2023-04-27T07:25:05.677Z,35.12
2023-04-27T07:27:33.383Z,35.14
2023-04-27T07:30:00.862Z,34.90
2023-04-27T07:32:28.697Z,34.54
2023-04-27T07:34:57.127Z,34.31
2023-04-27T07:37:24.700Z,34.03
2023-04-27T07:39:53.627Z,33.83
2023-04-27T07:42:25.366Z,33.58
2023-04-27T07:44:52.806Z,33.29
2023-04-27T07:47:20.416Z,33.22
2023-04-27T07:49:48.361Z,32.97
2023-04-27T07:52:16.241Z,32.90
2023-04-27T07:54:43.651Z,32.68
2023-04-27T07:57:12.241Z,32.56
2023-04-27T07:59:40.087Z,32.39
2023-04-27T08:02:19.167Z,32.16
2023-04-27T08:04:48.608Z,32.20
2023-04-27T08:07:17.710Z,32.23
2023-04-27T08:09:45.408Z,32.28
2023-04-27T08:12:12.933Z,32.36
2023-04-27T08:14:40.386Z,32.54
2023-04-27T08:17:07.885Z,32.49
2023-04-27T08:19:35.381Z,32.31
2023-04-27T08:22:02.858Z,32.18
2023-04-27T08:24:30.423Z,32.08
2023-04-27T08:26:57.841Z,32.05
2023-04-27T08:29:28.324Z,31.97
2023-04-27T08:32:00.505Z,32.14
2023-04-27T08:34:28.748Z,31.97
2023-04-27T08:36:57.154Z,31.76
2023-04-27T08:39:25.191Z,31.54
2023-04-27T08:41:52.943Z,31.54
2023-04-27T08:44:20.412Z,31.57
2023-04-27T08:46:48.025Z,31.62
2023-04-27T08:49:16.962Z,31.50
2023-04-27T08:51:45.081Z,31.32
2023-04-27T08:54:12.718Z,31.12
2023-04-27T08:56:40.088Z,31.14
2023-04-27T08:59:15.347Z,30.70
2023-04-27T09:01:49.114Z,30.46
2023-04-27T09:04:18.664Z,30.08
2023-04-27T09:06:46.706Z,30.14
2023-04-27T09:09:23.915Z,30.39
2023-04-27T09:11:51.964Z,29.61
2023-04-27T09:14:25.432Z,29.46
2023-04-27T09:17:00.381Z,29.24
2023-04-27T09:19:29.546Z,29.26
2023-04-27T09:22:08.612Z,29.57
2023-04-27T09:24:36.340Z,29.18
2023-04-27T09:27:05.244Z,29.22
2023-04-27T09:29:36.843Z,29.00
2023-04-27T09:32:17.117Z,29.03
2023-04-27T09:34:45.708Z,28.69
2023-04-27T09:37:14.546Z,28.64
2023-04-27T09:39:43.194Z,28.63
2023-04-27T09:42:13.521Z,28.73
2023-04-27T09:44:40.986Z,28.41
2023-04-27T09:47:10.142Z,28.37
2023-04-27T09:49:38.688Z,28.16
2023-04-27T09:52:06.344Z,27.91
2023-04-27T09:54:35.597Z,27.85
2023-04-27T09:57:19.209Z,27.84
2023-04-27T10:00:15.036Z,27.67
2023-04-27T10:03:02.748Z,27.53
2023-04-27T10:05:40.777Z,27.34
2023-04-27T10:08:10.410Z,27.05
2023-04-27T10:10:50.714Z,27.31
2023-04-27T10:13:27.291Z,27.37
2023-04-27T10:15:54.869Z,27.01
2023-04-27T10:18:31.379Z,27.23
2023-04-27T10:21:10.948Z,27.23
2023-04-27T10:23:48.616Z,27.11
2023-04-27T10:26:26.914Z,27.22
2023-04-27T10:29:08.717Z,27.22
2023-04-27T10:31:36.435Z,26.91
2023-04-27T10:34:09.821Z,26.99
2023-04-27T10:36:38.085Z,27.32
2023-04-27T10:39:47.101Z,27.22
2023-04-27T10:42:29.342Z,26.83
2023-04-27T10:44:59.986Z,26.71
2023-04-27T10:47:41.629Z,26.87
2023-04-27T10:50:15.738Z,26.63
2023-04-27T10:52:44.855Z,26.71
2023-04-27T10:55:20.497Z,26.86
2023-04-27T10:57:53.173Z,26.67
2023-04-27T11:00:34.340Z,26.48
2023-04-27T11:03:20.006Z,26.63
2023-04-27T11:05:49.326Z,26.30
2023-04-27T11:08:18.630Z,26.27
2023-04-27T11:10:47.623Z,26.25
2023-04-27T11:13:34.403Z,26.30
2023-04-27T11:16:01.957Z,26.20
2023-04-27T11:18:36.480Z,26.26
2023-04-27T11:21:07.954Z,26.24
2023-04-27T11:23:38.962Z,26.31
2023-04-27T11:26:15.170Z,26.49
2023-04-27T11:28:57.908Z,26.18
2023-04-27T11:31:25.794Z,26.39
2023-04-27T11:33:56.139Z,26.03
2023-04-27T11:36:24.680Z,25.96
2023-04-27T11:38:58.174Z,25.93
2023-04-27T11:41:34.652Z,25.82
2023-04-27T11:44:09.692Z,25.50
2023-04-27T11:46:38.375Z,25.41
2023-04-27T11:49:07.341Z,25.59
2023-04-27T11:51:36.478Z,25.50
2023-04-27T11:54:08.151Z,25.57
2023-04-27T11:56:41.974Z,25.71
2023-04-27T11:59:21.301Z,25.88
2023-04-27T12:01:48.954Z,25.60
2023-04-27T12:04:17.133Z,25.60
2023-04-27T12:06:44.976Z,25.58
2023-04-27T12:09:12.483Z,25.60
2023-04-27T12:11:39.987Z,25.53
2023-04-27T12:14:08.372Z,25.45
2023-04-27T12:16:35.907Z,25.46
2023-04-27T12:19:03.425Z,25.53
2023-04-27T12:21:32.572Z,25.60
2023-04-27T12:24:00.147Z,25.56
2023-04-27T12:26:27.842Z,25.50
2023-04-27T12:28:55.388Z,25.37
2023-04-27T12:31:27.746Z,25.40
2023-04-27T12:33:55.521Z,25.38
2023-04-27T12:36:23.060Z,25.25
2023-04-27T12:38:50.626Z,25.19
2023-04-27T12:41:18.091Z,25.23
2023-04-27T12:43:46.276Z,25.14
2023-04-27T12:46:13.919Z,25.08
2023-04-27T12:48:41.522Z,25.07
2023-04-27T12:51:09.247Z,24.94
2023-04-27T12:53:36.924Z,24.92
2023-04-27T12:56:04.966Z,24.96
2023-04-27T12:58:32.534Z,24.90
2023-04-27T13:01:00.204Z,24.78
2023-04-27T13:03:27.718Z,24.76
2023-04-27T13:05:55.522Z,24.72
2023-04-27T13:08:23.005Z,24.71
2023-04-27T13:10:50.742Z,24.65
2023-04-27T13:13:18.208Z,24.53
2023-04-27T13:15:46.634Z,24.32
2023-04-27T13:18:14.126Z,24.31
2023-04-27T13:20:41.734Z,24.15
2023-04-27T13:23:09.406Z,24.01
2023-04-27T13:25:37.023Z,23.97
2023-04-27T13:28:04.731Z,23.94
2023-04-27T13:30:32.775Z,23.73
2023-04-27T13:33:14.179Z,23.87
2023-04-27T13:35:48.807Z,23.78
2023-04-27T13:38:16.535Z,23.74
2023-04-27T13:40:45.842Z,23.69
2023-04-27T13:43:13.300Z,23.64
2023-04-27T13:45:43.100Z,23.69
2023-04-27T13:48:10.742Z,23.71
2023-04-27T13:50:38.491Z,23.69
2023-04-27T13:53:05.990Z,23.64
2023-04-27T13:55:33.770Z,23.60
2023-04-27T13:58:01.279Z,23.42
2023-04-27T14:00:33.591Z,23.45
2023-04-27T14:03:01.864Z,23.48
2023-04-27T14:05:29.521Z,23.41
2023-04-27T14:08:01.706Z,23.24
2023-04-27T14:10:29.948Z,23.43
2023-04-27T14:12:57.916Z,23.26
2023-04-27T14:15:25.674Z,23.06
2023-04-27T14:17:53.529Z,23.06
2023-04-27T14:20:21.479Z,23.01
2023-04-27T14:22:49.084Z,22.97
2023-04-27T14:25:16.720Z,22.95
2023-04-27T14:27:44.146Z,22.87
2023-04-27T14:30:11.954Z,22.82
2023-04-27T14:32:39.557Z,22.72
2023-04-27T14:35:07.984Z,22.65
2023-04-27T14:37:35.418Z,22.61
2023-04-27T14:40:05.224Z,22.60
2023-04-27T14:42:32.809Z,22.54
2023-04-27T14:45:00.580Z,22.45
2023-04-27T14:47:28.058Z,22.35
2023-04-27T14:49:55.677Z,22.31
2023-04-27T14:52:23.099Z,22.36
2023-04-27T14:54:50.593Z,22.22
2023-04-27T14:57:18.121Z,22.17
2023-04-27T14:59:45.738Z,22.10
2023-04-27T15:02:13.221Z,21.88
2023-04-27T15:04:41.787Z,21.94
2023-04-27T15:07:10.033Z,21.95
2023-04-27T15:09:37.851Z,21.98
2023-04-27T15:12:07.829Z,21.77
2023-04-27T15:14:35.352Z,21.71
2023-04-27T15:17:03.398Z,21.73
2023-04-27T15:19:30.868Z,21.77
2023-04-27T15:21:58.408Z,21.70
2023-04-27T15:24:25.933Z,21.66
2023-04-27T15:26:53.520Z,21.60
2023-04-27T15:29:21.203Z,21.53
2023-04-27T15:31:48.896Z,21.50
2023-04-27T15:34:16.536Z,21.51
2023-04-27T15:36:44.112Z,21.45
2023-04-27T15:39:11.927Z,21.31
2023-04-27T15:41:40.928Z,21.27
2023-04-27T15:44:08.411Z,21.21
2023-04-27T15:46:36.063Z,21.15
2023-04-27T15:49:04.282Z,21.16
2023-04-27T15:51:31.881Z,21.01
2023-04-27T15:53:59.474Z,21.04
2023-04-27T15:56:30.610Z,21.07
2023-04-27T15:58:58.539Z,21.12
2023-04-27T16:01:26.360Z,21.02
2023-04-27T16:04:01.559Z,21.08
2023-04-27T16:06:37.178Z,21.07
2023-04-27T16:09:05.042Z,21.09
2023-04-27T16:11:32.858Z,21.04
2023-04-27T16:14:03.016Z,21.05
2023-04-27T16:16:33.399Z,21.04
2023-04-27T16:19:00.961Z,21.02
2023-04-27T16:21:28.585Z,20.95
2023-04-27T16:23:56.011Z,20.86
2023-04-27T16:26:24.830Z,20.80
2023-04-27T16:28:54.657Z,20.83
2023-04-27T16:31:22.580Z,20.81
2023-04-27T16:33:50.013Z,20.80
2023-04-27T16:36:17.584Z,20.77
2023-04-27T16:38:45.081Z,20.82
2023-04-27T16:41:12.760Z,20.62
2023-04-27T16:43:40.254Z,20.57
2023-04-27T16:46:10.455Z,20.72
2023-04-27T16:48:38.098Z,20.57
2023-04-27T16:51:05.876Z,20.56
2023-04-27T16:53:33.385Z,20.57
2023-04-27T16:56:02.221Z,20.56
2023-04-27T16:58:30.844Z,20.54
2023-04-27T17:00:58.852Z,20.44
2023-04-27T17:03:26.561Z,20.43
2023-04-27T17:05:54.264Z,20.44
2023-04-27T17:08:21.992Z,20.40
2023-04-27T17:10:49.966Z,20.42
2023-04-27T17:13:17.989Z,20.24
2023-04-27T17:15:45.473Z,20.33
2023-04-27T17:18:13.260Z,20.35
2023-04-27T17:20:42.240Z,20.35
2023-04-27T17:23:09.897Z,20.27
2023-04-27T17:25:39.951Z,20.17
2023-04-27T17:28:07.546Z,20.18
2023-04-27T17:30:35.071Z,20.16
2023-04-27T17:33:03.572Z,20.07
2023-04-27T17:35:31.740Z,20.06
2023-04-27T17:37:59.119Z,19.95
2023-04-27T17:40:26.541Z,19.92
2023-04-27T17:42:56.736Z,19.76
2023-04-27T17:45:26.207Z,19.73
2023-04-27T17:47:53.804Z,19.76
2023-04-27T17:50:21.465Z,19.82
2023-04-27T17:52:51.486Z,19.91
2023-04-27T17:55:19.032Z,19.83
2023-04-27T17:57:48.152Z,19.80
2023-04-27T18:00:18.797Z,19.80
2023-04-27T18:02:48.464Z,19.71
2023-04-27T18:05:17.071Z,19.77
2023-04-27T18:07:46.483Z,19.68
2023-04-27T18:10:14.086Z,19.61
2023-04-27T18:12:41.563Z,19.56
2023-04-27T18:15:10.075Z,19.53
2023-04-27T18:17:37.706Z,19.45
2023-04-27T18:20:09.593Z,19.27
2023-04-27T18:22:40.427Z,19.30
2023-04-27T18:25:10.241Z,19.14
2023-04-27T18:27:43.806Z,19.03
2023-04-27T18:30:11.440Z,19.43
2023-04-27T18:32:38.896Z,18.93
2023-04-27T18:35:06.979Z,18.85
2023-04-27T18:37:34.449Z,18.69
2023-04-27T18:40:01.935Z,18.71
2023-04-27T18:42:30.141Z,18.71
2023-04-27T18:45:00.827Z,18.57
2023-04-27T18:47:29.033Z,18.56
2023-04-27T18:49:59.541Z,18.66
2023-04-27T18:52:27.032Z,18.53
2023-04-27T18:54:54.516Z,18.52
2023-04-27T18:57:22.552Z,18.55
2023-04-27T18:59:50.021Z,18.58
2023-04-27T19:02:17.641Z,18.63
2023-04-27T19:04:52.753Z,18.68
2023-04-27T19:07:25.651Z,18.69
2023-04-27T19:10:02.371Z,18.83
2023-04-27T19:12:32.435Z,18.69
2023-04-27T19:15:00.004Z,18.66
2023-04-27T19:17:27.658Z,18.66
2023-04-27T19:19:55.305Z,18.64
2023-04-27T19:22:22.795Z,18.61
2023-04-27T19:24:50.300Z,18.59
2023-04-27T19:27:18.227Z,18.58
2023-04-27T19:29:50.241Z,18.72
2023-04-27T19:32:18.162Z,18.58
2023-04-27T19:34:46.262Z,18.58
2023-04-27T19:37:14.362Z,18.54
2023-04-27T19:39:42.074Z,18.52
2023-04-27T19:42:09.783Z,18.48
2023-04-27T19:44:37.346Z,18.47
2023-04-27T19:47:04.946Z,18.41
2023-04-27T19:49:35.385Z,18.41
2023-04-27T19:52:03.711Z,18.38
2023-04-27T19:54:31.439Z,18.34
2023-04-27T19:56:58.987Z,18.28
2023-04-27T19:59:27.538Z,18.25
2023-04-27T20:01:55.161Z,18.21
2023-04-27T20:04:23.145Z,18.21
2023-04-27T20:06:51.275Z,18.18
2023-04-27T20:09:18.797Z,18.13
2023-04-27T20:11:46.328Z,18.10
2023-04-27T20:14:14.088Z,18.08
2023-04-27T20:16:41.882Z,18.02
2023-04-27T20:19:11.208Z,18.04
2023-04-27T20:21:39.060Z,18.01
2023-04-27T20:24:07.467Z,18.02
2023-04-27T20:26:34.919Z,18.00
2023-04-27T20:29:02.415Z,18.01
2023-04-27T20:31:30.098Z,17.98
2023-04-27T20:33:57.730Z,18.01
2023-04-27T20:36:25.174Z,18.00
2023-04-27T20:38:52.651Z,17.97
2023-04-27T20:41:21.629Z,17.90
2023-04-27T20:43:49.193Z,17.86
2023-04-27T20:46:16.824Z,17.82
2023-04-27T20:48:45.459Z,17.77
2023-04-27T20:51:13.028Z,17.75
2023-04-27T20:53:40.589Z,17.77
2023-04-27T20:56:08.334Z,17.70
2023-04-27T20:58:35.823Z,17.69
2023-04-27T21:01:03.347Z,17.63
2023-04-27T21:03:30.949Z,17.67
2023-04-27T21:05:58.501Z,17.65
2023-04-27T21:08:26.412Z,17.64
2023-04-27T21:10:54.235Z,17.68
2023-04-27T21:13:21.700Z,17.68
2023-04-27T21:15:49.166Z,17.70
2023-04-27T21:18:28.978Z,17.70
2023-04-27T21:20:57.917Z,17.80
2023-04-27T21:23:25.544Z,17.74
2023-04-27T21:25:53.121Z,17.79
2023-04-27T21:28:22.497Z,17.80
2023-04-27T21:30:50.095Z,17.79
2023-04-27T21:33:17.591Z,17.85
2023-04-27T21:35:45.258Z,17.86
2023-04-27T21:38:12.953Z,17.85
2023-04-27T21:40:40.504Z,17.86
2023-04-27T21:43:08.325Z,17.82
2023-04-27T21:45:36.425Z,17.83
2023-04-27T21:48:04.008Z,17.82
2023-04-27T21:50:31.537Z,17.82
2023-04-27T21:52:58.994Z,17.77
2023-04-27T21:55:26.468Z,17.75
2023-04-27T21:57:54.007Z,17.72
2023-04-27T22:00:21.625Z,17.67
2023-04-27T22:02:49.941Z,17.62
2023-04-27T22:05:21.241Z,17.56
2023-04-27T22:07:48.824Z,17.47
2023-04-27T22:10:16.471Z,17.43
2023-04-27T22:12:44.148Z,17.39
2023-04-27T22:15:11.836Z,17.27
2023-04-27T22:17:39.937Z,17.28
2023-04-27T22:20:11.601Z,17.25
2023-04-27T22:22:39.109Z,17.12
2023-04-27T22:25:07.973Z,17.15
2023-04-27T22:27:44.087Z,17.09
2023-04-27T22:30:13.121Z,17.03
2023-04-27T22:32:40.724Z,16.98
2023-04-27T22:35:24.754Z,16.94
2023-04-27T22:37:57.717Z,16.96
2023-04-27T22:40:25.416Z,16.88
2023-04-27T22:42:54.065Z,16.87
2023-04-27T22:45:23.018Z,16.78
2023-04-27T22:47:50.648Z,16.73
2023-04-27T22:50:18.343Z,16.72
2023-04-27T22:52:45.974Z,16.69
2023-04-27T22:55:13.665Z,16.65
2023-04-27T22:57:42.025Z,16.56
2023-04-27T23:00:11.855Z,16.45
2023-04-27T23:02:43.190Z,16.53
2023-04-27T23:05:11.183Z,16.38
2023-04-27T23:07:41.322Z,16.38
2023-04-27T23:10:09.366Z,16.33
2023-04-27T23:12:38.076Z,16.31
2023-04-27T23:15:05.834Z,16.29
2023-04-27T23:17:34.418Z,16.25
2023-04-27T23:20:04.032Z,16.24
2023-04-27T23:22:31.832Z,16.23
2023-04-27T23:24:59.280Z,16.16
2023-04-27T23:27:26.735Z,16.20
2023-04-27T23:29:54.655Z,16.20
2023-04-27T23:32:22.170Z,16.17
2023-04-27T23:34:53.078Z,16.17
2023-04-27T23:37:20.712Z,16.12
2023-04-27T23:39:48.279Z,16.11
2023-04-27T23:42:15.787Z,16.09
2023-04-27T23:44:43.677Z,16.10
2023-04-27T23:47:11.140Z,15.98
2023-04-27T23:49:38.772Z,15.95
2023-04-27T23:52:06.313Z,15.98
2023-04-27T23:54:33.809Z,15.99
2023-04-27T23:57:01.664Z,16.00
2023-04-27T23:59:29.136Z,15.97
